Allen, Washington
Current Conditions -  °F | °C
As of 2:53 PM on Wednesday 22 Oct 2014 (Local Time) from KBLI Reporting Station
Overcast Overcast  
Wind Chill: 14°   Ceiling: 3100
Heat Index: 14°   Visibility: 10mi
Dew Point: 11°   Wind: 10mph
Humidity: 78%   Direction: 140°SE
Pressure: 29.62"   Gusts: NA
Location:  48.5689°N, 122.407°W
Report Text: KBLI 222153Z 14009KT 10SM SCT023 OVC031 14/11 A2962 RMK AO2 SLP037 T01440106
Loading
Personal Weather Stations






























Interactive Weather Map
Tropical Storm Tracking
New forecast layout! Learn more

10-Day Weather Forecast

Advertisements
Track Severe Weather on mobile